sensor_id;sensor_type;location;lat;lon;timestamp;pressure;altitude;pressure_sealevel;temperature;humidity
69855;BME280;57146;48.140;16.304;2024-01-15T00:02:17;98018.84;;;-3.35;80.46
69855;BME280;57146;48.140;16.304;2024-01-15T00:04:47;98020.94;;;-3.32;80.49
69855;BME280;57146;48.140;16.304;2024-01-15T00:07:14;98013.22;;;-3.32;80.07
69855;BME280;57146;48.140;16.304;2024-01-15T00:09:43;98023.78;;;-3.33;79.97
69855;BME280;57146;48.140;16.304;2024-01-15T00:12:10;98014.47;;;-3.34;80.03
69855;BME280;57146;48.140;16.304;2024-01-15T00:14:37;98012.94;;;-3.35;79.87
69855;BME280;57146;48.140;16.304;2024-01-15T00:17:06;98006.53;;;-3.33;80.67
69855;BME280;57146;48.140;16.304;2024-01-15T00:19:33;98001.84;;;-3.36;79.98
69855;BME280;57146;48.140;16.304;2024-01-15T00:22:03;98007.00;;;-3.36;80.44
69855;BME280;57146;48.140;16.304;2024-01-15T00:24:30;98010.06;;;-3.39;80.77
69855;BME280;57146;48.140;16.304;2024-01-15T00:26:57;98003.41;;;-3.35;80.85
69855;BME280;57146;48.140;16.304;2024-01-15T00:29:24;97991.00;;;-3.38;81.07
69855;BME280;57146;48.140;16.304;2024-01-15T00:31:52;97989.75;;;-3.35;80.89
69855;BME280;57146;48.140;16.304;2024-01-15T00:34:19;97986.16;;;-3.34;81.75
69855;BME280;57146;48.140;16.304;2024-01-15T00:36:46;97975.56;;;-3.38;81.42
69855;BME280;57146;48.140;16.304;2024-01-15T00:39:13;97974.03;;;-3.39;81.08
69855;BME280;57146;48.140;16.304;2024-01-15T00:41:40;97977.69;;;-3.35;80.62
69855;BME280;57146;48.140;16.304;2024-01-15T00:44:08;97975.56;;;-3.38;81.01
69855;BME280;57146;48.140;16.304;2024-01-15T00:46:45;97967.81;;;-3.43;81.63
69855;BME280;57146;48.140;16.304;2024-01-15T00:49:13;97967.47;;;-3.52;81.93
69855;BME280;57146;48.140;16.304;2024-01-15T00:51:41;97969.53;;;-3.49;81.78
69855;BME280;57146;48.140;16.304;2024-01-15T00:54:08;97968.84;;;-3.44;82.62
69855;BME280;57146;48.140;16.304;2024-01-15T00:56:35;97992.28;;;-3.41;82.17
69855;BME280;57146;48.140;16.304;2024-01-15T00:59:02;97984.31;;;-3.39;83.41
69855;BME280;57146;48.140;16.304;2024-01-15T01:01:29;97982.03;;;-3.35;82.48
69855;BME280;57146;48.140;16.304;2024-01-15T01:03:56;97975.88;;;-3.34;82.36
69855;BME280;57146;48.140;16.304;2024-01-15T01:06:25;97962.81;;;-3.28;82.93
69855;BME280;57146;48.140;16.304;2024-01-15T01:08:52;97971.09;;;-3.26;83.33
69855;BME280;57146;48.140;16.304;2024-01-15T01:11:19;97975.75;;;-3.23;82.49
69855;BME280;57146;48.140;16.304;2024-01-15T01:13:50;97962.63;;;-3.21;82.42
69855;BME280;57146;48.140;16.304;2024-01-15T01:16:17;97960.84;;;-3.21;82.82
69855;BME280;57146;48.140;16.304;2024-01-15T01:18:44;97934.88;;;-3.19;83.49
69855;BME280;57146;48.140;16.304;2024-01-15T01:21:12;97961.38;;;-3.19;83.30
69855;BME280;57146;48.140;16.304;2024-01-15T01:23:39;97954.19;;;-3.17;83.00
69855;BME280;57146;48.140;16.304;2024-01-15T01:26:06;97951.59;;;-3.17;82.75
69855;BME280;57146;48.140;16.304;2024-01-15T01:28:33;97960.13;;;-3.16;82.89
69855;BME280;57146;48.140;16.304;2024-01-15T01:31:01;97959.34;;;-3.17;83.16
69855;BME280;57146;48.140;16.304;2024-01-15T01:33:28;97967.59;;;-3.15;83.66
69855;BME280;57146;48.140;16.304;2024-01-15T01:35:56;97960.91;;;-3.16;83.72
69855;BME280;57146;48.140;16.304;2024-01-15T01:38:23;97968.63;;;-3.16;84.04
69855;BME280;57146;48.140;16.304;2024-01-15T01:40:50;97971.19;;;-3.16;83.90
69855;BME280;57146;48.140;16.304;2024-01-15T01:43:17;97958.09;;;-3.14;83.42
69855;BME280;57146;48.140;16.304;2024-01-15T01:45:44;97947.78;;;-3.14;83.75
69855;BME280;57146;48.140;16.304;2024-01-15T01:48:13;97934.13;;;-3.15;82.42
69855;BME280;57146;48.140;16.304;2024-01-15T01:50:41;97931.34;;;-3.13;83.33
69855;BME280;57146;48.140;16.304;2024-01-15T01:53:08;97924.38;;;-3.13;83.45
69855;BME280;57146;48.140;16.304;2024-01-15T01:55:36;97924.13;;;-3.11;83.10
69855;BME280;57146;48.140;16.304;2024-01-15T01:58:05;97931.09;;;-3.11;83.14
69855;BME280;57146;48.140;16.304;2024-01-15T02:00:33;97916.41;;;-3.11;83.20
69855;BME280;57146;48.140;16.304;2024-01-15T02:03:01;97918.47;;;-3.13;83.27
69855;BME280;57146;48.140;16.304;2024-01-15T02:05:28;97899.66;;;-3.14;82.38
69855;BME280;57146;48.140;16.304;2024-01-15T02:07:57;97892.72;;;-3.13;82.76
69855;BME280;57146;48.140;16.304;2024-01-15T02:10:24;97889.91;;;-3.11;82.34
69855;BME280;57146;48.140;16.304;2024-01-15T02:12:51;97896.84;;;-3.12;82.62
69855;BME280;57146;48.140;16.304;2024-01-15T02:15:43;97896.84;;;-3.12;82.19
69855;BME280;57146;48.140;16.304;2024-01-15T02:18:10;97894.28;;;-3.12;82.07
69855;BME280;57146;48.140;16.304;2024-01-15T02:20:38;97892.47;;;-3.11;81.80
69855;BME280;57146;48.140;16.304;2024-01-15T02:23:12;97896.31;;;-3.14;82.64
69855;BME280;57146;48.140;16.304;2024-01-15T02:25:42;97900.44;;;-3.13;81.90
69855;BME280;57146;48.140;16.304;2024-01-15T02:28:10;97906.13;;;-3.11;82.05
69855;BME280;57146;48.140;16.304;2024-01-15T02:30:41;97891.16;;;-3.14;81.95
69855;BME280;57146;48.140;16.304;2024-01-15T02:33:10;97887.03;;;-3.15;81.34
69855;BME280;57146;48.140;16.304;2024-01-15T02:35:39;97893.97;;;-3.16;81.50
69855;BME280;57146;48.140;16.304;2024-01-15T02:38:07;97893.22;;;-3.16;80.77
69855;BME280;57146;48.140;16.304;2024-01-15T02:40:34;97876.97;;;-3.17;81.73
69855;BME280;57146;48.140;16.304;2024-01-15T02:43:02;97888.84;;;-3.16;81.59
69855;BME280;57146;48.140;16.304;2024-01-15T02:45:30;97883.28;;;-3.02;80.12
69855;BME280;57146;48.140;16.304;2024-01-15T02:47:57;97887.78;;;-2.87;77.69
69855;BME280;57146;48.140;16.304;2024-01-15T02:50:24;97883.03;;;-2.69;76.32
69855;BME280;57146;48.140;16.304;2024-01-15T02:52:51;97881.50;;;-2.22;73.48
69855;BME280;57146;48.140;16.304;2024-01-15T02:55:18;97889.19;;;-2.32;74.00
69855;BME280;57146;48.140;16.304;2024-01-15T02:57:45;97872.94;;;-2.28;73.94
69855;BME280;57146;48.140;16.304;2024-01-15T03:00:13;97878.09;;;-2.28;73.72
69855;BME280;57146;48.140;16.304;2024-01-15T03:02:44;97885.63;;;-2.21;73.29
69855;BME280;57146;48.140;16.304;2024-01-15T03:05:14;97888.75;;;-2.14;73.35
69855;BME280;57146;48.140;16.304;2024-01-15T03:07:42;97890.31;;;-2.13;73.23
69855;BME280;57146;48.140;16.304;2024-01-15T03:10:09;97891.59;;;-2.10;73.35
69855;BME280;57146;48.140;16.304;2024-01-15T03:12:36;97896.91;;;-1.80;71.14
69855;BME280;57146;48.140;16.304;2024-01-15T03:15:04;97896.91;;;-1.85;71.92
69855;BME280;57146;48.140;16.304;2024-01-15T03:17:31;97909.03;;;-1.80;71.80
69855;BME280;57146;48.140;16.304;2024-01-15T03:19:58;97916.00;;;-1.76;72.22
69855;BME280;57146;48.140;16.304;2024-01-15T03:22:25;97914.28;;;-1.50;71.09
69855;BME280;57146;48.140;16.304;2024-01-15T03:24:52;97916.09;;;-1.50;71.23
69855;BME280;57146;48.140;16.304;2024-01-15T03:27:20;97905.56;;;-1.38;70.60
69855;BME280;57146;48.140;16.304;2024-01-15T03:29:47;97899.09;;;-1.36;71.07
69855;BME280;57146;48.140;16.304;2024-01-15T03:32:14;97916.94;;;-1.34;71.61
69855;BME280;57146;48.140;16.304;2024-01-15T03:34:41;97923.91;;;-1.35;71.67
69855;BME280;57146;48.140;16.304;2024-01-15T03:37:08;97934.75;;;-1.28;71.38
69855;BME280;57146;48.140;16.304;2024-01-15T03:39:35;97918.00;;;-1.20;71.32
69855;BME280;57146;48.140;16.304;2024-01-15T03:42:02;97917.97;;;-1.15;70.90
69855;BME280;57146;48.140;16.304;2024-01-15T03:44:30;97918.50;;;-1.18;71.37
69855;BME280;57146;48.140;16.304;2024-01-15T03:46:58;97916.94;;;-1.19;71.35
69855;BME280;57146;48.140;16.304;2024-01-15T03:49:25;97911.50;;;-1.17;71.32
69855;BME280;57146;48.140;16.304;2024-01-15T03:51:52;97907.91;;;-1.16;71.32
69855;BME280;57146;48.140;16.304;2024-01-15T03:54:19;97908.44;;;-1.09;70.79
69855;BME280;57146;48.140;16.304;2024-01-15T03:56:47;97905.06;;;-1.15;71.09
69855;BME280;57146;48.140;16.304;2024-01-15T03:59:14;97891.13;;;-1.14;71.29
69855;BME280;57146;48.140;16.304;2024-01-15T04:01:41;97893.47;;;-1.12;71.14
69855;BME280;57146;48.140;16.304;2024-01-15T04:04:15;97900.16;;;-1.11;71.72
69855;BME280;57146;48.140;16.304;2024-01-15T04:06:43;97896.03;;;-1.12;71.78
69855;BME280;57146;48.140;16.304;2024-01-15T04:09:13;97888.56;;;-1.04;71.34
69855;BME280;57146;48.140;16.304;2024-01-15T04:11:40;97882.13;;;-1.06;72.06
69855;BME280;57146;48.140;16.304;2024-01-15T04:14:07;97876.44;;;-1.03;71.38
69855;BME280;57146;48.140;16.304;2024-01-15T04:16:34;97862.47;;;-0.92;71.17
69855;BME280;57146;48.140;16.304;2024-01-15T04:19:01;97871.78;;;-0.96;71.53
69855;BME280;57146;48.140;16.304;2024-01-15T04:21:28;97864.53;;;-0.94;71.11
69855;BME280;57146;48.140;16.304;2024-01-15T04:23:55;97868.16;;;-0.85;70.57
69855;BME280;57146;48.140;16.304;2024-01-15T04:26:22;97863.78;;;-0.84;71.37
69855;BME280;57146;48.140;16.304;2024-01-15T04:28:49;97853.44;;;-0.74;71.20
69855;BME280;57146;48.140;16.304;2024-01-15T04:31:25;97842.59;;;-0.71;71.15
69855;BME280;57146;48.140;16.304;2024-01-15T04:33:53;97858.28;;;-0.47;69.58
69855;BME280;57146;48.140;16.304;2024-01-15T04:36:21;97837.84;;;-0.43;69.64
69855;BME280;57146;48.140;16.304;2024-01-15T04:38:48;97849.75;;;-0.42;70.59
69855;BME280;57146;48.140;16.304;2024-01-15T04:41:16;97847.44;;;-0.39;70.10
69855;BME280;57146;48.140;16.304;2024-01-15T04:43:43;97851.81;;;-0.34;69.63
69855;BME280;57146;48.140;16.304;2024-01-15T04:46:10;97851.53;;;-0.28;69.31
69855;BME280;57146;48.140;16.304;2024-01-15T04:48:37;97844.78;;;-0.29;70.55
69855;BME280;57146;48.140;16.304;2024-01-15T04:51:05;97837.59;;;-0.32;69.80
69855;BME280;57146;48.140;16.304;2024-01-15T04:53:34;97841.44;;;-0.24;69.74
69855;BME280;57146;48.140;16.304;2024-01-15T04:56:02;97836.53;;;-0.31;70.16
69855;BME280;57146;48.140;16.304;2024-01-15T04:58:29;97845.03;;;-0.25;69.56
69855;BME280;57146;48.140;16.304;2024-01-15T05:00:56;97851.81;;;-0.34;70.27
69855;BME280;57146;48.140;16.304;2024-01-15T05:03:23;97866.28;;;-0.33;70.31
69855;BME280;57146;48.140;16.304;2024-01-15T05:05:51;97860.09;;;-0.37;69.70
69855;BME280;57146;48.140;16.304;2024-01-15T05:08:18;97863.72;;;-0.38;70.38
69855;BME280;57146;48.140;16.304;2024-01-15T05:10:45;97877.69;;;-0.44;70.50
69855;BME280;57146;48.140;16.304;2024-01-15T05:13:15;97880.53;;;-0.46;70.50
69855;BME280;57146;48.140;16.304;2024-01-15T05:15:43;97893.47;;;-0.46;70.20
69855;BME280;57146;48.140;16.304;2024-01-15T05:18:11;97917.25;;;-0.49;70.73
69855;BME280;57146;48.140;16.304;2024-01-15T05:20:38;97910.25;;;-0.54;70.14
69855;BME280;57146;48.140;16.304;2024-01-15T05:23:05;97906.66;;;-0.53;69.91
69855;BME280;57146;48.140;16.304;2024-01-15T05:25:32;97896.31;;;-0.53;69.35
69855;BME280;57146;48.140;16.304;2024-01-15T05:28:00;97906.41;;;-0.56;69.73
69855;BME280;57146;48.140;16.304;2024-01-15T05:30:27;97907.16;;;-0.56;69.94
69855;BME280;57146;48.140;16.304;2024-01-15T05:32:54;97916.47;;;-0.55;69.50
69855;BME280;57146;48.140;16.304;2024-01-15T05:35:21;97917.50;;;-0.51;68.64
69855;BME280;57146;48.140;16.304;2024-01-15T05:37:48;97910.25;;;-0.49;68.17
69855;BME280;57146;48.140;16.304;2024-01-15T05:40:15;97924.75;;;-0.42;67.63
69855;BME280;57146;48.140;16.304;2024-01-15T05:42:42;97934.56;;;-0.50;69.09
69855;BME280;57146;48.140;16.304;2024-01-15T05:45:09;97926.81;;;-0.50;69.24
69855;BME280;57146;48.140;16.304;2024-01-15T05:47:36;97920.59;;;-0.54;68.95
69855;BME280;57146;48.140;16.304;2024-01-15T05:50:04;97935.34;;;-0.59;69.84
69855;BME280;57146;48.140;16.304;2024-01-15T05:52:31;97944.41;;;-0.57;69.52
69855;BME280;57146;48.140;16.304;2024-01-15T05:55:00;97926.28;;;-0.62;70.08
69855;BME280;57146;48.140;16.304;2024-01-15T05:57:27;97952.13;;;-0.62;70.13
69855;BME280;57146;48.140;16.304;2024-01-15T05:59:54;97942.56;;;-0.61;69.92
69855;BME280;57146;48.140;16.304;2024-01-15T06:02:23;97959.13;;;-0.62;68.90
69855;BME280;57146;48.140;16.304;2024-01-15T06:04:50;97962.22;;;-0.65;69.50
69855;BME280;57146;48.140;16.304;2024-01-15T06:07:17;97964.81;;;-0.70;69.52
69855;BME280;57146;48.140;16.304;2024-01-15T06:09:44;97960.16;;;-0.74;70.14
69855;BME280;57146;48.140;16.304;2024-01-15T06:12:11;97956.53;;;-0.78;70.16
69855;BME280;57146;48.140;16.304;2024-01-15T06:14:38;97956.78;;;-0.84;70.95
69855;BME280;57146;48.140;16.304;2024-01-15T06:17:05;97958.34;;;-0.88;71.49
69855;BME280;57146;48.140;16.304;2024-01-15T06:19:33;97965.31;;;-0.89;71.24
69855;BME280;57146;48.140;16.304;2024-01-15T06:22:00;97967.88;;;-0.94;71.77
69855;BME280;57146;48.140;16.304;2024-01-15T06:24:27;97966.84;;;-0.98;71.39
69855;BME280;57146;48.140;16.304;2024-01-15T06:26:56;97963.22;;;-1.02;71.43
69855;BME280;57146;48.140;16.304;2024-01-15T06:29:25;97955.47;;;-1.02;71.51
69855;BME280;57146;48.140;16.304;2024-01-15T06:31:52;97938.94;;;-1.06;71.74
69855;BME280;57146;48.140;16.304;2024-01-15T06:34:45;97954.44;;;-1.06;71.96
69855;BME280;57146;48.140;16.304;2024-01-15T06:37:12;97965.53;;;-1.06;71.74
69855;BME280;57146;48.140;16.304;2024-01-15T06:39:39;97964.72;;;-1.11;71.86
69855;BME280;57146;48.140;16.304;2024-01-15T06:42:06;97972.47;;;-1.11;71.97
69855;BME280;57146;48.140;16.304;2024-01-15T06:44:33;97993.91;;;-1.11;72.38
69855;BME280;57146;48.140;16.304;2024-01-15T06:47:00;98000.13;;;-1.17;72.63
69855;BME280;57146;48.140;16.304;2024-01-15T06:49:27;97989.00;;;-1.12;72.11
69855;BME280;57146;48.140;16.304;2024-01-15T06:51:53;98000.66;;;-1.10;72.42
69855;BME280;57146;48.140;16.304;2024-01-15T06:54:20;98006.81;;;-1.11;72.35
69855;BME280;57146;48.140;16.304;2024-01-15T06:56:47;97994.72;;;-1.05;71.24
69855;BME280;57146;48.140;16.304;2024-01-15T06:59:14;97998.06;;;-1.05;71.44
69855;BME280;57146;48.140;16.304;2024-01-15T07:01:45;98007.13;;;-1.02;71.82
69855;BME280;57146;48.140;16.304;2024-01-15T07:04:12;98000.41;;;-1.03;71.60
69855;BME280;57146;48.140;16.304;2024-01-15T07:06:39;98001.44;;;-0.99;71.80
69855;BME280;57146;48.140;16.304;2024-01-15T07:09:06;97990.88;;;-0.92;70.95
69855;BME280;57146;48.140;16.304;2024-01-15T07:11:33;97992.16;;;-0.90;70.74
69855;BME280;57146;48.140;16.304;2024-01-15T07:14:03;97993.19;;;-0.86;70.39
69855;BME280;57146;48.140;16.304;2024-01-15T07:16:30;97992.19;;;-0.85;70.85
69855;BME280;57146;48.140;16.304;2024-01-15T07:19:04;97974.59;;;-0.83;70.01
69855;BME280;57146;48.140;16.304;2024-01-15T07:21:32;97981.34;;;-0.77;70.18
69855;BME280;57146;48.140;16.304;2024-01-15T07:23:59;97975.91;;;-0.75;69.44
69855;BME280;57146;48.140;16.304;2024-01-15T07:26:26;97969.97;;;-0.65;69.23
69855;BME280;57146;48.140;16.304;2024-01-15T07:28:55;97980.84;;;-0.63;69.02
69855;BME280;57146;48.140;16.304;2024-01-15T07:31:21;97991.94;;;-0.58;69.38
69855;BME280;57146;48.140;16.304;2024-01-15T07:33:50;97994.53;;;-0.58;69.14
69855;BME280;57146;48.140;16.304;2024-01-15T07:36:17;97987.81;;;-0.49;68.71
69855;BME280;57146;48.140;16.304;2024-01-15T07:38:44;97996.88;;;-0.46;68.49
69855;BME280;57146;48.140;16.304;2024-01-15T07:41:13;97989.13;;;-0.46;68.97
69855;BME280;57146;48.140;16.304;2024-01-15T07:43:40;97991.44;;;-0.44;68.62
69855;BME280;57146;48.140;16.304;2024-01-15T07:46:32;97993.25;;;-0.45;68.80
69855;BME280;57146;48.140;16.304;2024-01-15T07:49:00;98004.63;;;-0.46;69.28
69855;BME280;57146;48.140;16.304;2024-01-15T07:51:27;97998.94;;;-0.38;69.24
69855;BME280;57146;48.140;16.304;2024-01-15T07:53:57;97996.59;;;-0.39;69.71
69855;BME280;57146;48.140;16.304;2024-01-15T07:56:24;97989.88;;;-0.35;68.53
69855;BME280;57146;48.140;16.304;2024-01-15T07:58:53;98007.19;;;-0.31;68.24
69855;BME280;57146;48.140;16.304;2024-01-15T08:01:20;97995.81;;;-0.30;69.11
69855;BME280;57146;48.140;16.304;2024-01-15T08:03:47;97976.69;;;-0.23;67.93
69855;BME280;57146;48.140;16.304;2024-01-15T08:06:16;97990.91;;;-0.21;69.19
69855;BME280;57146;48.140;16.304;2024-01-15T08:08:43;97984.44;;;-0.18;68.72
69855;BME280;57146;48.140;16.304;2024-01-15T08:11:10;97987.53;;;-0.16;68.67
69855;BME280;57146;48.140;16.304;2024-01-15T08:13:37;98008.97;;;-0.11;67.91
69855;BME280;57146;48.140;16.304;2024-01-15T08:16:05;97977.16;;;-0.11;68.35
69855;BME280;57146;48.140;16.304;2024-01-15T08:18:57;97981.59;;;-0.07;67.65
69855;BME280;57146;48.140;16.304;2024-01-15T08:21:26;97984.94;;;-0.06;67.64
69855;BME280;57146;48.140;16.304;2024-01-15T08:23:52;97979.25;;;-0.03;68.37
69855;BME280;57146;48.140;16.304;2024-01-15T08:26:20;97984.41;;;0.02;66.95
69855;BME280;57146;48.140;16.304;2024-01-15T08:28:52;97972.00;;;0.04;67.41
69855;BME280;57146;48.140;16.304;2024-01-15T08:31:18;97959.81;;;0.05;67.81
69855;BME280;57146;48.140;16.304;2024-01-15T08:33:45;97974.56;;;0.09;67.50
69855;BME280;57146;48.140;16.304;2024-01-15T08:36:13;97968.84;;;0.22;66.12
69855;BME280;57146;48.140;16.304;2024-01-15T08:38:40;97968.84;;;0.22;67.07
69855;BME280;57146;48.140;16.304;2024-01-15T08:41:06;97956.66;;;0.23;67.17
69855;BME280;57146;48.140;16.304;2024-01-15T08:43:58;97955.88;;;0.33;65.77
69855;BME280;57146;48.140;16.304;2024-01-15T08:46:50;97963.09;;;0.31;66.07
69855;BME280;57146;48.140;16.304;2024-01-15T08:49:17;97949.13;;;0.37;65.67
69855;BME280;57146;48.140;16.304;2024-01-15T08:51:45;97971.88;;;0.35;65.16
69855;BME280;57146;48.140;16.304;2024-01-15T08:54:12;97965.69;;;0.36;66.00
69855;BME280;57146;48.140;16.304;2024-01-15T08:57:03;97966.44;;;0.41;66.01
69855;BME280;57146;48.140;16.304;2024-01-15T08:59:54;97963.03;;;0.46;65.17
69855;BME280;57146;48.140;16.304;2024-01-15T09:02:22;97974.44;;;0.45;64.94
69855;BME280;57146;48.140;16.304;2024-01-15T09:04:48;97987.66;;;0.43;64.96
69855;BME280;57146;48.140;16.304;2024-01-15T09:07:15;97989.97;;;0.45;64.94
69855;BME280;57146;48.140;16.304;2024-01-15T09:09:43;97989.97;;;0.45;65.84
69855;BME280;57146;48.140;16.304;2024-01-15T09:12:11;97987.91;;;0.47;65.48
69855;BME280;57146;48.140;16.304;2024-01-15T09:14:38;97993.59;;;0.49;65.73
69855;BME280;57146;48.140;16.304;2024-01-15T09:17:05;97999.00;;;0.53;65.30
69855;BME280;57146;48.140;16.304;2024-01-15T09:19:57;97983.75;;;0.51;65.51
69855;BME280;57146;48.140;16.304;2024-01-15T09:22:24;97984.25;;;0.53;65.93
69855;BME280;57146;48.140;16.304;2024-01-15T09:24:51;98009.38;;;0.53;65.81
69855;BME280;57146;48.140;16.304;2024-01-15T09:27:18;98007.81;;;0.52;65.66
69855;BME280;57146;48.140;16.304;2024-01-15T09:29:45;98002.94;;;0.50;65.97
69855;BME280;57146;48.140;16.304;2024-01-15T09:32:12;98002.69;;;0.46;66.73
69855;BME280;57146;48.140;16.304;2024-01-15T09:34:39;97990.25;;;0.43;66.86
69855;BME280;57146;48.140;16.304;2024-01-15T09:37:06;97977.03;;;0.45;66.92
69855;BME280;57146;48.140;16.304;2024-01-15T09:39:33;97985.31;;;0.42;66.25
69855;BME280;57146;48.140;16.304;2024-01-15T09:42:02;97952.72;;;0.41;66.59
69855;BME280;57146;48.140;16.304;2024-01-15T09:44:30;97957.38;;;0.44;67.01
69855;BME280;57146;48.140;16.304;2024-01-15T09:46:57;97962.50;;;0.49;65.90
69855;BME280;57146;48.140;16.304;2024-01-15T09:49:24;97948.00;;;0.53;66.51
69855;BME280;57146;48.140;16.304;2024-01-15T09:51:51;97973.13;;;0.58;65.68
69855;BME280;57146;48.140;16.304;2024-01-15T09:54:33;97972.03;;;0.64;66.30
69855;BME280;57146;48.140;16.304;2024-01-15T09:57:00;97964.75;;;0.71;67.13
69855;BME280;57146;48.140;16.304;2024-01-15T09:59:28;97964.47;;;0.78;66.77
69855;BME280;57146;48.140;16.304;2024-01-15T10:01:55;97967.53;;;0.85;66.50
69855;BME280;57146;48.140;16.304;2024-01-15T10:04:24;97969.06;;;0.91;66.87
69855;BME280;57146;48.140;16.304;2024-01-15T10:06:51;97964.59;;;1.02;66.51
69855;BME280;57146;48.140;16.304;2024-01-15T10:09:20;97945.53;;;1.22;66.34
69855;BME280;57146;48.140;16.304;2024-01-15T10:11:48;97940.78;;;1.34;65.60
69855;BME280;57146;48.140;16.304;2024-01-15T10:14:15;97935.50;;;1.44;66.20
69855;BME280;57146;48.140;16.304;2024-01-15T10:16:42;97931.31;;;1.48;64.95
69855;BME280;57146;48.140;16.304;2024-01-15T10:19:10;97929.72;;;1.52;65.10
69855;BME280;57146;48.140;16.304;2024-01-15T10:21:37;97930.97;;;1.60;65.24
69855;BME280;57146;48.140;16.304;2024-01-15T10:24:06;97952.00;;;1.58;64.42
69855;BME280;57146;48.140;16.304;2024-01-15T10:26:33;97920.03;;;1.63;64.56
69855;BME280;57146;48.140;16.304;2024-01-15T10:29:00;97930.94;;;1.65;64.11
69855;BME280;57146;48.140;16.304;2024-01-15T10:31:27;97916.66;;;1.67;64.08
69855;BME280;57146;48.140;16.304;2024-01-15T10:34:12;97912.47;;;1.66;63.62
69855;BME280;57146;48.140;16.304;2024-01-15T10:36:40;97897.69;;;1.67;63.89
69855;BME280;57146;48.140;16.304;2024-01-15T10:39:09;97909.13;;;1.66;63.12
69855;BME280;57146;48.140;16.304;2024-01-15T10:42:00;97916.69;;;1.62;63.34
69855;BME280;57146;48.140;16.304;2024-01-15T10:44:29;97915.63;;;1.63;63.45
69855;BME280;57146;48.140;16.304;2024-01-15T10:47:22;97918.22;;;1.63;63.26
69855;BME280;57146;48.140;16.304;2024-01-15T10:49:49;97918.78;;;1.60;63.05
69855;BME280;57146;48.140;16.304;2024-01-15T10:52:17;97905.59;;;1.57;63.43
69855;BME280;57146;48.140;16.304;2024-01-15T10:54:47;97910.78;;;1.57;63.58
69855;BME280;57146;48.140;16.304;2024-01-15T10:57:16;97923.69;;;1.62;64.11
69855;BME280;57146;48.140;16.304;2024-01-15T10:59:44;97930.41;;;1.63;63.83
69855;BME280;57146;48.140;16.304;2024-01-15T11:02:14;97924.91;;;1.70;63.64
69855;BME280;57146;48.140;16.304;2024-01-15T11:04:45;97923.84;;;1.71;63.18
69855;BME280;57146;48.140;16.304;2024-01-15T11:07:13;97921.78;;;1.73;63.17
69855;BME280;57146;48.140;16.304;2024-01-15T11:09:40;97919.84;;;1.83;63.44
69855;BME280;57146;48.140;16.304;2024-01-15T11:12:13;97930.75;;;1.85;62.61
69855;BME280;57146;48.140;16.304;2024-01-15T11:14:48;97922.34;;;1.94;63.20
69855;BME280;57146;48.140;16.304;2024-01-15T11:17:18;97917.09;;;1.99;62.61
69855;BME280;57146;48.140;16.304;2024-01-15T11:19:46;97929.53;;;2.02;63.25
69855;BME280;57146;48.140;16.304;2024-01-15T11:25:01;97936.53;;;2.01;63.15
69855;BME280;57146;48.140;16.304;2024-01-15T11:27:45;97928.03;;;1.96;63.80
69855;BME280;57146;48.140;16.304;2024-01-15T11:30:14;97933.44;;;1.99;64.40
69855;BME280;57146;48.140;16.304;2024-01-15T11:32:41;97935.31;;;1.94;64.47
69855;BME280;57146;48.140;16.304;2024-01-15T11:35:09;97920.59;;;1.89;64.83
69855;BME280;57146;48.140;16.304;2024-01-15T11:43:00;97944.97;;;1.88;65.46
69855;BME280;57146;48.140;16.304;2024-01-15T11:45:27;97935.31;;;1.94;66.18
69855;BME280;57146;48.140;16.304;2024-01-15T11:48:13;97942.34;;;1.93;65.89
69855;BME280;57146;48.140;16.304;2024-01-15T11:50:46;97949.63;;;1.91;66.22
69855;BME280;57146;48.140;16.304;2024-01-15T11:55:51;97928.78;;;1.72;67.08
69855;BME280;57146;48.140;16.304;2024-01-15T11:58:18;97928.06;;;1.66;67.56
69855;BME280;57146;48.140;16.304;2024-01-15T12:00:50;97912.03;;;1.59;68.50
69855;BME280;57146;48.140;16.304;2024-01-15T12:03:23;97916.53;;;1.49;68.31
69855;BME280;57146;48.140;16.304;2024-01-15T12:05:52;97900.22;;;1.48;69.43
69855;BME280;57146;48.140;16.304;2024-01-15T12:08:23;97891.72;;;1.42;69.73
69855;BME280;57146;48.140;16.304;2024-01-15T12:10:50;97879.56;;;1.38;70.31
69855;BME280;57146;48.140;16.304;2024-01-15T12:13:20;97873.59;;;1.37;70.87
69855;BME280;57146;48.140;16.304;2024-01-15T12:15:48;97881.16;;;1.34;70.10
69855;BME280;57146;48.140;16.304;2024-01-15T12:18:17;97885.84;;;1.32;69.82
69855;BME280;57146;48.140;16.304;2024-01-15T12:20:47;97868.72;;;1.31;69.45
69855;BME280;57146;48.140;16.304;2024-01-15T12:23:15;97874.91;;;1.35;69.92
69855;BME280;57146;48.140;16.304;2024-01-15T12:25:42;97859.88;;;1.37;69.49
69855;BME280;57146;48.140;16.304;2024-01-15T12:28:09;97869.69;;;1.40;69.29
69855;BME280;57146;48.140;16.304;2024-01-15T12:30:36;97873.59;;;1.37;68.56
69855;BME280;57146;48.140;16.304;2024-01-15T12:33:04;97882.88;;;1.43;68.38
69855;BME280;57146;48.140;16.304;2024-01-15T12:35:34;97880.00;;;1.45;67.94
69855;BME280;57146;48.140;16.304;2024-01-15T12:38:02;97870.41;;;1.46;66.60
69855;BME280;57146;48.140;16.304;2024-01-15T12:40:30;97877.38;;;1.50;66.56
69855;BME280;57146;48.140;16.304;2024-01-15T12:42:57;97857.13;;;1.52;66.77
69855;BME280;57146;48.140;16.304;2024-01-15T12:45:26;97847.25;;;1.54;66.08
69855;BME280;57146;48.140;16.304;2024-01-15T12:47:53;97841.28;;;1.54;65.82
69855;BME280;57146;48.140;16.304;2024-01-15T12:50:24;97850.91;;;1.53;64.68
69855;BME280;57146;48.140;16.304;2024-01-15T12:52:51;97836.59;;;1.56;65.28
69855;BME280;57146;48.140;16.304;2024-01-15T12:55:18;97839.19;;;1.56;65.05
69855;BME280;57146;48.140;16.304;2024-01-15T12:57:45;97852.38;;;1.59;65.02
69855;BME280;57146;48.140;16.304;2024-01-15T13:00:13;97852.88;;;1.61;63.78
69855;BME280;57146;48.140;16.304;2024-01-15T13:02:42;97839.09;;;1.66;63.51
69855;BME280;57146;48.140;16.304;2024-01-15T13:05:10;97841.13;;;1.69;63.20
69855;BME280;57146;48.140;16.304;2024-01-15T13:07:39;97845.00;;;1.72;63.17
69855;BME280;57146;48.140;16.304;2024-01-15T13:10:06;97843.09;;;1.77;62.60
69855;BME280;57146;48.140;16.304;2024-01-15T13:12:35;97831.69;;;1.78;62.29